sensor_id;sensor_type;location;lat;lon;timestamp;pressure;altitude;pressure_sealevel;temperature;humidity
5609;BME280;2826;51.354;9.588;2023-07-28T00:00:44;97152.16;;;18.99;100.00
5609;BME280;2826;51.354;9.588;2023-07-28T00:03:11;97141.66;;;18.99;100.00
5609;BME280;2826;51.354;9.588;2023-07-28T00:05:38;97143.59;;;18.97;100.00
5609;BME280;2826;51.354;9.588;2023-07-28T00:08:05;97143.59;;;18.97;100.00
5609;BME280;2826;51.354;9.588;2023-07-28T00:10:32;97158.53;;;18.96;100.00
5609;BME280;2826;51.354;9.588;2023-07-28T00:12:59;97157.56;;;18.97;100.00
5609;BME280;2826;51.354;9.588;2023-07-28T00:15:29;97155.06;;;18.96;100.00
5609;BME280;2826;51.354;9.588;2023-07-28T00:17:55;97145.13;;;18.99;100.00
5609;BME280;2826;51.354;9.588;2023-07-28T00:20:23;97143.31;;;18.90;100.00
5609;BME280;2826;51.354;9.588;2023-07-28T00:22:50;97142.06;;;18.94;100.00
5609;BME280;2826;51.354;9.588;2023-07-28T00:25:17;97141.13;;;18.85;100.00
5609;BME280;2826;51.354;9.588;2023-07-28T00:27:43;97135.28;;;18.91;100.00
5609;BME280;2826;51.354;9.588;2023-07-28T00:30:11;97148.44;;;18.91;100.00
5609;BME280;2826;51.354;9.588;2023-07-28T00:32:40;97143.88;;;18.93;100.00
5609;BME280;2826;51.354;9.588;2023-07-28T00:35:08;97147.47;;;18.92;100.00
5609;BME280;2826;51.354;9.588;2023-07-28T00:37:35;97149.94;;;18.94;100.00
5609;BME280;2826;51.354;9.588;2023-07-28T00:40:02;97146.22;;;18.97;100.00
5609;BME280;2826;51.354;9.588;2023-07-28T00:42:29;97145.00;;;18.91;100.00
5609;BME280;2826;51.354;9.588;2023-07-28T00:44:56;97143.75;;;18.85;100.00
5609;BME280;2826;51.354;9.588;2023-07-28T00:47:22;97147.88;;;18.78;100.00
5609;BME280;2826;51.354;9.588;2023-07-28T00:49:50;97144.16;;;18.80;100.00
5609;BME280;2826;51.354;9.588;2023-07-28T00:52:17;97150.38;;;18.79;100.00
5609;BME280;2826;51.354;9.588;2023-07-28T00:54:43;97143.34;;;18.80;100.00
5609;BME280;2826;51.354;9.588;2023-07-28T00:57:10;97150.50;;;18.78;100.00
5609;BME280;2826;51.354;9.588;2023-07-28T00:59:37;97149.53;;;18.79;100.00
5609;BME280;2826;51.354;9.588;2023-07-28T01:02:04;97151.63;;;18.75;100.00
5609;BME280;2826;51.354;9.588;2023-07-28T01:04:31;97122.03;;;18.63;100.00
5609;BME280;2826;51.354;9.588;2023-07-28T01:07:04;97144.28;;;18.79;100.00
5609;BME280;2826;51.354;9.588;2023-07-28T01:09:38;97139.59;;;18.73;100.00
5609;BME280;2826;51.354;9.588;2023-07-28T01:12:07;97141.81;;;18.77;100.00
5609;BME280;2826;51.354;9.588;2023-07-28T01:14:34;97141.81;;;18.77;100.00
5609;BME280;2826;51.354;9.588;2023-07-28T01:17:01;97140.31;;;18.75;100.00
5609;BME280;2826;51.354;9.588;2023-07-28T01:19:29;97141.09;;;18.75;100.00
5609;BME280;2826;51.354;9.588;2023-07-28T01:22:07;97138.47;;;18.75;100.00
5609;BME280;2826;51.354;9.588;2023-07-28T01:24:49;97134.22;;;18.74;100.00
5609;BME280;2826;51.354;9.588;2023-07-28T01:27:19;97137.22;;;18.70;100.00
5609;BME280;2826;51.354;9.588;2023-07-28T01:29:47;97135.59;;;18.68;100.00
5609;BME280;2826;51.354;9.588;2023-07-28T01:32:15;97133.78;;;18.69;100.00
5609;BME280;2826;51.354;9.588;2023-07-28T01:34:41;97138.47;;;18.65;100.00
5609;BME280;2826;51.354;9.588;2023-07-28T01:37:08;97144.69;;;18.64;100.00
5609;BME280;2826;51.354;9.588;2023-07-28T01:39:35;97131.44;;;18.66;100.00
5609;BME280;2826;51.354;9.588;2023-07-28T01:42:02;97142.06;;;18.64;100.00
5609;BME280;2826;51.354;9.588;2023-07-28T01:44:30;97139.59;;;18.63;100.00
5609;BME280;2826;51.354;9.588;2023-07-28T01:46:57;97139.44;;;18.64;100.00
5609;BME280;2826;51.354;9.588;2023-07-28T01:49:23;97136.16;;;18.62;100.00
5609;BME280;2826;51.354;9.588;2023-07-28T01:51:50;97130.06;;;18.62;100.00
5609;BME280;2826;51.354;9.588;2023-07-28T01:54:17;97104.91;;;18.39;100.00
5609;BME280;2826;51.354;9.588;2023-07-28T01:56:44;97108.34;;;18.40;100.00
5609;BME280;2826;51.354;9.588;2023-07-28T01:59:10;97134.06;;;18.56;100.00
5609;BME280;2826;51.354;9.588;2023-07-28T02:01:40;97130.63;;;18.56;100.00
5609;BME280;2826;51.354;9.588;2023-07-28T02:04:07;97138.50;;;18.56;100.00
5609;BME280;2826;51.354;9.588;2023-07-28T02:06:34;97127.69;;;18.59;100.00
5609;BME280;2826;51.354;9.588;2023-07-28T02:09:01;97126.59;;;18.51;100.00
5609;BME280;2826;51.354;9.588;2023-07-28T02:11:27;97132.25;;;18.57;100.00
5609;BME280;2826;51.354;9.588;2023-07-28T02:13:54;97132.53;;;18.53;100.00
5609;BME280;2826;51.354;9.588;2023-07-28T02:16:20;97133.38;;;18.54;100.00
5609;BME280;2826;51.354;9.588;2023-07-28T02:18:49;97133.63;;;18.51;100.00
5609;BME280;2826;51.354;9.588;2023-07-28T02:21:15;97134.75;;;18.48;100.00
5609;BME280;2826;51.354;9.588;2023-07-28T02:23:42;97144.56;;;18.46;100.00
5609;BME280;2826;51.354;9.588;2023-07-28T02:26:09;97136.81;;;18.45;100.00
5609;BME280;2826;51.354;9.588;2023-07-28T02:28:35;97138.59;;;18.44;100.00
5609;BME280;2826;51.354;9.588;2023-07-28T02:31:02;97148.41;;;18.42;100.00
5609;BME280;2826;51.354;9.588;2023-07-28T02:33:29;97152.56;;;18.45;100.00
5609;BME280;2826;51.354;9.588;2023-07-28T02:35:58;97151.84;;;18.42;100.00
5609;BME280;2826;51.354;9.588;2023-07-28T02:38:25;97142.31;;;18.41;100.00
5609;BME280;2826;51.354;9.588;2023-07-28T02:40:52;97151.19;;;18.40;100.00
5609;BME280;2826;51.354;9.588;2023-07-28T02:43:19;97147.03;;;18.38;100.00
5609;BME280;2826;51.354;9.588;2023-07-28T02:45:48;97146.44;;;18.34;100.00
5609;BME280;2826;51.354;9.588;2023-07-28T02:48:14;97139.69;;;18.32;100.00
5609;BME280;2826;51.354;9.588;2023-07-28T02:51:05;97156.25;;;18.32;100.00
5609;BME280;2826;51.354;9.588;2023-07-28T02:53:32;97147.56;;;18.32;100.00
5609;BME280;2826;51.354;9.588;2023-07-28T02:55:58;97148.66;;;18.29;100.00
5609;BME280;2826;51.354;9.588;2023-07-28T02:58:25;97158.34;;;18.28;100.00
5609;BME280;2826;51.354;9.588;2023-07-28T03:00:52;97155.84;;;18.27;100.00
5609;BME280;2826;51.354;9.588;2023-07-28T03:03:27;97153.91;;;18.29;100.00
5609;BME280;2826;51.354;9.588;2023-07-28T03:05:54;97162.06;;;18.26;100.00
5609;BME280;2826;51.354;9.588;2023-07-28T03:08:25;97155.97;;;18.25;100.00
5609;BME280;2826;51.354;9.588;2023-07-28T03:11:01;97173.38;;;18.26;100.00
5609;BME280;2826;51.354;9.588;2023-07-28T03:13:28;97153.75;;;18.11;100.00
5609;BME280;2826;51.354;9.588;2023-07-28T03:15:55;97167.69;;;18.21;100.00
5609;BME280;2826;51.354;9.588;2023-07-28T03:18:23;97170.19;;;18.23;100.00
5609;BME280;2826;51.354;9.588;2023-07-28T03:20:50;97171.56;;;18.17;100.00
5609;BME280;2826;51.354;9.588;2023-07-28T03:23:16;97169.78;;;18.18;100.00
5609;BME280;2826;51.354;9.588;2023-07-28T03:25:44;97175.16;;;18.16;100.00
5609;BME280;2826;51.354;9.588;2023-07-28T03:28:11;97179.84;;;18.12;100.00
5609;BME280;2826;51.354;9.588;2023-07-28T03:30:37;97182.88;;;18.18;100.00
5609;BME280;2826;51.354;9.588;2023-07-28T03:33:04;97182.75;;;18.19;100.00
5609;BME280;2826;51.354;9.588;2023-07-28T03:35:31;97177.78;;;18.16;100.00
5609;BME280;2826;51.354;9.588;2023-07-28T03:38:05;97193.25;;;18.19;100.00
5609;BME280;2826;51.354;9.588;2023-07-28T03:40:32;97193.38;;;18.18;100.00
5609;BME280;2826;51.354;9.588;2023-07-28T03:43:02;97194.34;;;18.17;100.00
5609;BME280;2826;51.354;9.588;2023-07-28T03:45:29;97188.53;;;18.13;100.00
5609;BME280;2826;51.354;9.588;2023-07-28T03:47:56;97192.13;;;18.12;100.00
5609;BME280;2826;51.354;9.588;2023-07-28T03:50:22;97198.03;;;18.14;100.00
5609;BME280;2826;51.354;9.588;2023-07-28T03:52:51;97184.38;;;18.10;100.00
5609;BME280;2826;51.354;9.588;2023-07-28T03:55:18;97186.75;;;18.13;100.00
5609;BME280;2826;51.354;9.588;2023-07-28T03:57:45;97193.09;;;18.11;100.00
5609;BME280;2826;51.354;9.588;2023-07-28T04:00:13;97194.63;;;18.13;100.00
5609;BME280;2826;51.354;9.588;2023-07-28T04:02:40;97194.63;;;18.13;100.00
5609;BME280;2826;51.354;9.588;2023-07-28T04:05:07;97191.16;;;18.13;100.00
5609;BME280;2826;51.354;9.588;2023-07-28T04:07:34;97189.63;;;18.10;100.00
5609;BME280;2826;51.354;9.588;2023-07-28T04:10:01;97193.78;;;18.13;100.00
5609;BME280;2826;51.354;9.588;2023-07-28T04:12:28;97190.75;;;18.18;100.00
5609;BME280;2826;51.354;9.588;2023-07-28T04:14:55;97202.78;;;18.20;100.00
5609;BME280;2826;51.354;9.588;2023-07-28T04:17:23;97195.72;;;18.21;100.00
5609;BME280;2826;51.354;9.588;2023-07-28T04:19:50;97193.09;;;18.21;100.00
5609;BME280;2826;51.354;9.588;2023-07-28T04:22:16;97196.00;;;18.18;100.00
5609;BME280;2826;51.354;9.588;2023-07-28T04:24:48;97196.00;;;18.18;100.00
5609;BME280;2826;51.354;9.588;2023-07-28T04:27:15;97205.41;;;18.20;100.00
5609;BME280;2826;51.354;9.588;2023-07-28T04:29:42;97207.06;;;18.21;100.00
5609;BME280;2826;51.354;9.588;2023-07-28T04:32:11;97196.81;;;18.18;100.00
5609;BME280;2826;51.354;9.588;2023-07-28T04:34:39;97198.50;;;18.19;100.00
5609;BME280;2826;51.354;9.588;2023-07-28T04:37:21;97200.03;;;18.22;100.00
5609;BME280;2826;51.354;9.588;2023-07-28T04:40:01;97209.56;;;18.23;100.00
5609;BME280;2826;51.354;9.588;2023-07-28T04:42:33;97198.94;;;18.24;100.00
5609;BME280;2826;51.354;9.588;2023-07-28T04:45:00;97205.00;;;18.25;100.00
5609;BME280;2826;51.354;9.588;2023-07-28T04:47:27;97210.94;;;18.27;100.00
5609;BME280;2826;51.354;9.588;2023-07-28T04:49:56;97208.47;;;18.25;100.00
5609;BME280;2826;51.354;9.588;2023-07-28T04:52:54;97208.59;;;18.24;100.00
5609;BME280;2826;51.354;9.588;2023-07-28T04:55:50;97224.44;;;18.22;100.00
5609;BME280;2826;51.354;9.588;2023-07-28T04:58:17;97222.41;;;18.26;100.00
5609;BME280;2826;51.354;9.588;2023-07-28T05:00:47;97225.59;;;18.30;100.00
5609;BME280;2826;51.354;9.588;2023-07-28T05:03:14;97219.50;;;18.29;100.00
5609;BME280;2826;51.354;9.588;2023-07-28T05:05:50;97220.19;;;18.21;100.00
5609;BME280;2826;51.354;9.588;2023-07-28T05:08:17;97217.47;;;18.33;100.00
5609;BME280;2826;51.354;9.588;2023-07-28T05:10:44;97213.63;;;18.37;100.00
5609;BME280;2826;51.354;9.588;2023-07-28T05:13:11;97227.03;;;18.44;100.00
5609;BME280;2826;51.354;9.588;2023-07-28T05:15:43;97223.94;;;18.38;100.00
5609;BME280;2826;51.354;9.588;2023-07-28T05:18:18;97223.69;;;18.41;100.00
5609;BME280;2826;51.354;9.588;2023-07-28T05:21:00;97233.38;;;18.41;100.00
5609;BME280;2826;51.354;9.588;2023-07-28T05:23:27;97234.75;;;18.45;100.00
5609;BME280;2826;51.354;9.588;2023-07-28T05:25:53;97236.31;;;18.48;100.00
5609;BME280;2826;51.354;9.588;2023-07-28T05:28:20;97235.75;;;18.54;100.00
5609;BME280;2826;51.354;9.588;2023-07-28T05:30:51;97235.63;;;18.56;100.00
5609;BME280;2826;51.354;9.588;2023-07-28T05:33:17;97239.75;;;18.58;100.00
5609;BME280;2826;51.354;9.588;2023-07-28T05:35:47;97239.91;;;18.57;100.00
5609;BME280;2826;51.354;9.588;2023-07-28T05:38:15;97244.72;;;18.51;100.00
5609;BME280;2826;51.354;9.588;2023-07-28T05:40:42;97255.94;;;18.63;100.00
5609;BME280;2826;51.354;9.588;2023-07-28T05:43:08;97258.56;;;18.63;100.00
5609;BME280;2826;51.354;9.588;2023-07-28T05:45:35;97257.59;;;18.64;100.00
5609;BME280;2826;51.354;9.588;2023-07-28T05:48:02;97254.72;;;18.67;100.00
5609;BME280;2826;51.354;9.588;2023-07-28T05:50:29;97256.78;;;18.64;100.00
5609;BME280;2826;51.354;9.588;2023-07-28T05:52:55;97254.84;;;18.66;100.00
5609;BME280;2826;51.354;9.588;2023-07-28T05:55:23;97177.06;;;18.14;100.00
5609;BME280;2826;51.354;9.588;2023-07-28T05:57:50;97259.13;;;18.67;100.00
5609;BME280;2826;51.354;9.588;2023-07-28T06:00:17;97256.38;;;18.68;100.00
5609;BME280;2826;51.354;9.588;2023-07-28T06:02:43;97259.41;;;18.74;100.00
5609;BME280;2826;51.354;9.588;2023-07-28T06:05:23;97257.19;;;18.79;100.00
5609;BME280;2826;51.354;9.588;2023-07-28T06:07:50;97267.56;;;18.80;100.00
5609;BME280;2826;51.354;9.588;2023-07-28T06:10:16;97264.97;;;18.90;100.00
5609;BME280;2826;51.354;9.588;2023-07-28T06:12:47;97272.47;;;18.95;100.00
5609;BME280;2826;51.354;9.588;2023-07-28T06:15:13;97260.56;;;19.01;100.00
5609;BME280;2826;51.354;9.588;2023-07-28T06:17:40;97271.38;;;19.08;100.00
5609;BME280;2826;51.354;9.588;2023-07-28T06:20:08;97268.22;;;19.14;100.00
5609;BME280;2826;51.354;9.588;2023-07-28T06:22:35;97268.63;;;19.19;100.00
5609;BME280;2826;51.354;9.588;2023-07-28T06:25:02;97266.28;;;19.26;100.00
5609;BME280;2826;51.354;9.588;2023-07-28T06:27:29;97275.00;;;19.26;100.00
5609;BME280;2826;51.354;9.588;2023-07-28T06:29:57;97270.16;;;19.31;100.00
5609;BME280;2826;51.354;9.588;2023-07-28T06:32:24;97274.97;;;19.36;100.00
5609;BME280;2826;51.354;9.588;2023-07-28T06:34:51;97275.56;;;19.40;100.00
5609;BME280;2826;51.354;9.588;2023-07-28T06:37:18;97278.28;;;19.48;99.25
5609;BME280;2826;51.354;9.588;2023-07-28T06:39:45;97278.28;;;19.48;99.07
5609;BME280;2826;51.354;9.588;2023-07-28T06:42:12;97280.38;;;19.44;98.85
5609;BME280;2826;51.354;9.588;2023-07-28T06:44:39;97285.22;;;19.39;99.25
5609;BME280;2826;51.354;9.588;2023-07-28T06:47:06;97284.13;;;19.52;98.75
5609;BME280;2826;51.354;9.588;2023-07-28T06:49:33;97279.13;;;19.58;99.23
5609;BME280;2826;51.354;9.588;2023-07-28T06:52:00;97286.88;;;19.60;98.61
5609;BME280;2826;51.354;9.588;2023-07-28T06:54:27;97293.22;;;19.67;98.64
5609;BME280;2826;51.354;9.588;2023-07-28T06:56:54;97293.75;;;19.81;98.24
5609;BME280;2826;51.354;9.588;2023-07-28T06:59:20;97294.59;;;19.81;97.42
5609;BME280;2826;51.354;9.588;2023-07-28T07:01:48;97294.59;;;19.81;97.88
5609;BME280;2826;51.354;9.588;2023-07-28T07:04:16;97295.41;;;19.92;97.19
5609;BME280;2826;51.354;9.588;2023-07-28T07:06:43;97294.16;;;19.96;96.94
5609;BME280;2826;51.354;9.588;2023-07-28T07:09:10;97300.53;;;20.03;97.17
5609;BME280;2826;51.354;9.588;2023-07-28T07:11:40;97294.03;;;20.07;96.19
5609;BME280;2826;51.354;9.588;2023-07-28T07:14:06;97296.66;;;20.07;96.37
5609;BME280;2826;51.354;9.588;2023-07-28T07:16:34;97298.72;;;20.04;95.30
5609;BME280;2826;51.354;9.588;2023-07-28T07:19:01;97302.19;;;20.04;95.39
5609;BME280;2826;51.354;9.588;2023-07-28T07:21:31;97297.50;;;19.98;95.61
5609;BME280;2826;51.354;9.588;2023-07-28T07:23:58;97306.47;;;20.05;95.82
5609;BME280;2826;51.354;9.588;2023-07-28T07:26:24;97297.59;;;20.06;95.70
5609;BME280;2826;51.354;9.588;2023-07-28T07:28:51;97303.16;;;20.03;95.29
5609;BME280;2826;51.354;9.588;2023-07-28T07:31:18;97305.34;;;20.08;95.36
5609;BME280;2826;51.354;9.588;2023-07-28T07:33:45;97303.69;;;20.17;95.38
5609;BME280;2826;51.354;9.588;2023-07-28T07:36:12;97311.25;;;20.30;95.43
5609;BME280;2826;51.354;9.588;2023-07-28T07:38:40;97307.22;;;20.35;94.88
5609;BME280;2826;51.354;9.588;2023-07-28T07:41:08;97316.34;;;20.41;93.86
5609;BME280;2826;51.354;9.588;2023-07-28T07:43:36;97320.25;;;20.37;94.14
5609;BME280;2826;51.354;9.588;2023-07-28T07:46:03;97322.59;;;20.40;94.70
5609;BME280;2826;51.354;9.588;2023-07-28T07:48:29;97323.78;;;20.46;94.26
5609;BME280;2826;51.354;9.588;2023-07-28T07:50:56;97322.53;;;20.50;94.00
5609;BME280;2826;51.354;9.588;2023-07-28T07:53:23;97315.59;;;20.59;94.03
5609;BME280;2826;51.354;9.588;2023-07-28T07:55:52;97316.75;;;20.74;93.73
5609;BME280;2826;51.354;9.588;2023-07-28T07:58:19;97315.63;;;20.77;93.66
5609;BME280;2826;51.354;9.588;2023-07-28T08:00:45;97318.25;;;20.87;93.42
5609;BME280;2826;51.354;9.588;2023-07-28T08:03:12;97327.88;;;20.96;92.86
5609;BME280;2826;51.354;9.588;2023-07-28T08:05:39;97323.38;;;21.07;92.52
5609;BME280;2826;51.354;9.588;2023-07-28T08:08:05;97326.56;;;21.10;91.55
5609;BME280;2826;51.354;9.588;2023-07-28T08:10:33;97324.00;;;21.19;91.72
5609;BME280;2826;51.354;9.588;2023-07-28T08:13:01;97292.22;;;21.02;91.39
5609;BME280;2826;51.354;9.588;2023-07-28T08:15:29;97337.34;;;21.35;91.57
5609;BME280;2826;51.354;9.588;2023-07-28T08:17:56;97334.03;;;21.33;90.00
5609;BME280;2826;51.354;9.588;2023-07-28T08:20:22;97336.91;;;21.40;90.33
5609;BME280;2826;51.354;9.588;2023-07-28T08:22:49;97341.19;;;21.41;89.84
5609;BME280;2826;51.354;9.588;2023-07-28T08:25:16;97338.47;;;21.33;89.09
5609;BME280;2826;51.354;9.588;2023-07-28T08:27:42;97341.34;;;21.39;89.75
5609;BME280;2826;51.354;9.588;2023-07-28T08:30:11;97344.19;;;21.46;89.56
5609;BME280;2826;51.354;9.588;2023-07-28T08:32:38;97339.50;;;21.58;89.14
5609;BME280;2826;51.354;9.588;2023-07-28T08:35:05;97351.66;;;21.69;89.69
5609;BME280;2826;51.354;9.588;2023-07-28T08:37:33;97353.03;;;21.73;88.39
5609;BME280;2826;51.354;9.588;2023-07-28T08:40:00;97351.22;;;21.74;88.48
5609;BME280;2826;51.354;9.588;2023-07-28T08:42:29;97358.16;;;21.75;88.05
5609;BME280;2826;51.354;9.588;2023-07-28T08:44:55;97354.13;;;21.71;88.80
5609;BME280;2826;51.354;9.588;2023-07-28T08:47:23;97363.00;;;21.79;88.56
5609;BME280;2826;51.354;9.588;2023-07-28T08:49:50;97368.50;;;21.86;89.32
5609;BME280;2826;51.354;9.588;2023-07-28T08:52:17;97371.13;;;21.86;89.06
5609;BME280;2826;51.354;9.588;2023-07-28T08:54:44;97372.09;;;21.85;89.01
5609;BME280;2826;51.354;9.588;2023-07-28T08:57:12;97372.09;;;21.85;87.88
5609;BME280;2826;51.354;9.588;2023-07-28T08:59:38;97373.41;;;21.81;88.18
5609;BME280;2826;51.354;9.588;2023-07-28T09:02:09;97354.13;;;21.71;88.90
5609;BME280;2826;51.354;9.588;2023-07-28T09:04:37;97378.19;;;21.86;88.89
5609;BME280;2826;51.354;9.588;2023-07-28T09:07:04;97374.91;;;21.84;88.71
5609;BME280;2826;51.354;9.588;2023-07-28T09:09:32;97388.53;;;21.79;88.73
5609;BME280;2826;51.354;9.588;2023-07-28T09:11:59;97382.75;;;21.75;88.58
5609;BME280;2826;51.354;9.588;2023-07-28T09:14:26;97385.28;;;21.67;88.43
5609;BME280;2826;51.354;9.588;2023-07-28T09:16:53;97393.63;;;21.62;89.21
5609;BME280;2826;51.354;9.588;2023-07-28T09:19:21;97389.63;;;21.58;89.42
5609;BME280;2826;51.354;9.588;2023-07-28T09:21:59;97392.88;;;21.52;89.74
5609;BME280;2826;51.354;9.588;2023-07-28T09:24:30;97393.31;;;21.47;89.92
5609;BME280;2826;51.354;9.588;2023-07-28T09:26:58;97378.84;;;21.33;90.56
5609;BME280;2826;51.354;9.588;2023-07-28T09:29:25;97399.66;;;21.54;91.19
5609;BME280;2826;51.354;9.588;2023-07-28T09:31:53;97408.44;;;21.73;91.24
5609;BME280;2826;51.354;9.588;2023-07-28T09:34:26;97396.53;;;21.87;91.09
5609;BME280;2826;51.354;9.588;2023-07-28T09:36:54;97406.59;;;22.10;89.58
5609;BME280;2826;51.354;9.588;2023-07-28T09:39:23;97391.97;;;22.42;88.88
5609;BME280;2826;51.354;9.588;2023-07-28T09:41:50;97390.50;;;22.75;88.22
5609;BME280;2826;51.354;9.588;2023-07-28T09:44:17;97390.47;;;23.01;87.57
5609;BME280;2826;51.354;9.588;2023-07-28T09:46:49;97385.78;;;23.30;86.47
5609;BME280;2826;51.354;9.588;2023-07-28T09:49:20;97387.50;;;23.64;85.78
5609;BME280;2826;51.354;9.588;2023-07-28T09:51:48;97387.84;;;23.78;83.04
5609;BME280;2826;51.354;9.588;2023-07-28T09:54:23;97387.19;;;23.84;79.98
5609;BME280;2826;51.354;9.588;2023-07-28T09:56:55;97354.75;;;23.82;79.96
5609;BME280;2826;51.354;9.588;2023-07-28T09:59:28;97378.56;;;24.07;81.09
5609;BME280;2826;51.354;9.588;2023-07-28T10:01:55;97393.16;;;24.11;81.23
5609;BME280;2826;51.354;9.588;2023-07-28T10:04:22;97388.50;;;24.05;80.18
5609;BME280;2826;51.354;9.588;2023-07-28T10:06:50;97383.53;;;23.85;79.55
5609;BME280;2826;51.354;9.588;2023-07-28T10:09:23;97391.28;;;23.45;79.35
5609;BME280;2826;51.354;9.588;2023-07-28T10:11:50;97389.19;;;23.22;79.53
5609;BME280;2826;51.354;9.588;2023-07-28T10:14:25;97383.69;;;22.99;80.81
5609;BME280;2826;51.354;9.588;2023-07-28T10:16:52;97386.75;;;22.77;81.62
5609;BME280;2826;51.354;9.588;2023-07-28T10:19:19;97384.00;;;22.95;82.74
5609;BME280;2826;51.354;9.588;2023-07-28T10:21:46;97383.50;;;23.43;83.22
5609;BME280;2826;51.354;9.588;2023-07-28T10:24:13;97393.47;;;23.91;80.85
5609;BME280;2826;51.354;9.588;2023-07-28T10:26:41;97392.16;;;24.12;78.39
5609;BME280;2826;51.354;9.588;2023-07-28T10:29:13;97400.28;;;24.19;78.16
5609;BME280;2826;51.354;9.588;2023-07-28T10:31:50;97398.94;;;24.23;76.39
5609;BME280;2826;51.354;9.588;2023-07-28T10:34:17;97415.00;;;24.30;74.93
5609;BME280;2826;51.354;9.588;2023-07-28T10:36:44;97405.72;;;24.17;75.16
5609;BME280;2826;51.354;9.588;2023-07-28T10:39:16;97398.94;;;24.23;76.39
5609;BME280;2826;51.354;9.588;2023-07-28T10:42:03;97407.84;;;24.47;75.25
5609;BME280;2826;51.354;9.588;2023-07-28T10:44:30;97406.16;;;24.71;73.91
5609;BME280;2826;51.354;9.588;2023-07-28T10:46:57;97398.47;;;24.92;71.89
5609;BME280;2826;51.354;9.588;2023-07-28T10:49:24;97403.34;;;25.12;72.84
5609;BME280;2826;51.354;9.588;2023-07-28T10:51:51;97412.28;;;25.20;70.40
5609;BME280;2826;51.354;9.588;2023-07-28T10:54:18;97406.97;;;25.20;71.73
5609;BME280;2826;51.354;9.588;2023-07-28T10:56:46;97404.06;;;25.06;71.45
5609;BME280;2826;51.354;9.588;2023-07-28T10:59:15;97404.72;;;25.00;70.97
5609;BME280;2826;51.354;9.588;2023-07-28T11:01:42;97396.47;;;24.95;70.45
5609;BME280;2826;51.354;9.588;2023-07-28T11:04:10;97394.25;;;25.07;70.33
5609;BME280;2826;51.354;9.588;2023-07-28T11:06:38;97401.03;;;25.09;70.54
5609;BME280;2826;51.354;9.588;2023-07-28T11:09:06;97399.59;;;24.98;70.46
5609;BME280;2826;51.354;9.588;2023-07-28T11:11:34;97392.31;;;25.00;70.79
5609;BME280;2826;51.354;9.588;2023-07-28T11:14:01;97392.03;;;25.18;70.65
5609;BME280;2826;51.354;9.588;2023-07-28T11:16:30;97387.31;;;25.37;69.47
5609;BME280;2826;51.354;9.588;2023-07-28T11:19:00;97382.53;;;25.64;69.36
5609;BME280;2826;51.354;9.588;2023-07-28T11:21:27;97388.34;;;26.06;67.67
5609;BME280;2826;51.354;9.588;2023-07-28T11:23:54;97383.28;;;26.50;67.79
5609;BME280;2826;51.354;9.588;2023-07-28T11:26:21;97382.84;;;26.61;64.53
5609;BME280;2826;51.354;9.588;2023-07-28T11:28:48;97378.63;;;26.82;64.17
5609;BME280;2826;51.354;9.588;2023-07-28T11:31:15;97381.34;;;27.04;64.01
5609;BME280;2826;51.354;9.588;2023-07-28T11:33:43;97380.63;;;27.10;63.94
5609;BME280;2826;51.354;9.588;2023-07-28T11:36:10;97380.47;;;27.34;61.16
5609;BME280;2826;51.354;9.588;2023-07-28T11:38:37;97377.91;;;27.62;60.95
5609;BME280;2826;51.354;9.588;2023-07-28T11:41:05;97376.50;;;27.88;60.05
5609;BME280;2826;51.354;9.588;2023-07-28T11:43:32;97378.50;;;28.08;58.64
5609;BME280;2826;51.354;9.588;2023-07-28T11:46:00;97376.94;;;28.21;57.56
5609;BME280;2826;51.354;9.588;2023-07-28T11:48:30;97347.53;;;28.07;55.47
5609;BME280;2826;51.354;9.588;2023-07-28T11:50:58;97341.44;;;28.13;55.66
5609;BME280;2826;51.354;9.588;2023-07-28T11:53:26;97391.44;;;28.68;55.96
5609;BME280;2826;51.354;9.588;2023-07-28T11:55:54;97382.06;;;28.79;54.67
5609;BME280;2826;51.354;9.588;2023-07-28T11:58:21;97386.47;;;29.01;54.07
5609;BME280;2826;51.354;9.588;2023-07-28T12:00:50;97388.31;;;28.93;54.03
5609;BME280;2826;51.354;9.588;2023-07-28T12:03:16;97389.84;;;28.81;52.51
5609;BME280;2826;51.354;9.588;2023-07-28T12:08:37;97361.03;;;28.27;54.15
5609;BME280;2826;51.354;9.588;2023-07-28T12:11:04;97375.72;;;28.16;55.01
5609;BME280;2826;51.354;9.588;2023-07-28T12:13:32;97378.63;;;27.56;56.11
5609;BME280;2826;51.354;9.588;2023-07-28T12:15:58;97396.31;;;27.05;56.88
5609;BME280;2826;51.354;9.588;2023-07-28T12:18:29;97393.66;;;26.60;58.94
5609;BME280;2826;51.354;9.588;2023-07-28T12:20:56;97393.44;;;26.31;60.85
5609;BME280;2826;51.354;9.588;2023-07-28T12:23:25;97380.81;;;26.10;61.67
5609;BME280;2826;51.354;9.588;2023-07-28T12:25:53;97388.94;;;25.93;62.79
5609;BME280;2826;51.354;9.588;2023-07-28T12:28:21;97404.19;;;25.76;63.97
5609;BME280;2826;51.354;9.588;2023-07-28T12:30:47;97408.81;;;25.51;64.80
5609;BME280;2826;51.354;9.588;2023-07-28T12:33:17;97413.34;;;25.34;65.56
5609;BME280;2826;51.354;9.588;2023-07-28T12:35:44;97409.81;;;25.18;67.97
5609;BME280;2826;51.354;9.588;2023-07-28T12:38:11;97413.22;;;24.95;70.02
5609;BME280;2826;51.354;9.588;2023-07-28T12:40:38;97409.94;;;24.76;72.79
5609;BME280;2826;51.354;9.588;2023-07-28T12:43:06;97411.31;;;24.56;74.80
5609;BME280;2826;51.354;9.588;2023-07-28T12:45:33;97420.28;;;24.46;75.33
5609;BME280;2826;51.354;9.588;2023-07-28T12:48:00;97424.59;;;24.31;76.68
5609;BME280;2826;51.354;9.588;2023-07-28T12:50:27;97417.66;;;24.30;78.72
5609;BME280;2826;51.354;9.588;2023-07-28T12:52:54;97428.53;;;24.60;76.97
5609;BME280;2826;51.354;9.588;2023-07-28T12:55:20;97427.81;;;24.91;75.71
5609;BME280;2826;51.354;9.588;2023-07-28T12:57:47;97413.25;;;25.18;74.98
5609;BME280;2826;51.354;9.588;2023-07-28T13:00:16;97404.41;;;25.66;74.04
5609;BME280;2826;51.354;9.588;2023-07-28T13:02:44;97408.38;;;26.32;71.87
5609;BME280;2826;51.354;9.588;2023-07-28T13:05:11;97417.50;;;26.68;67.69
5609;BME280;2826;51.354;9.588;2023-07-28T13:07:39;97409.78;;;26.88;65.17
5609;BME280;2826;51.354;9.588;2023-07-28T13:10:08;97419.16;;;27.15;63.88
5609;BME280;2826;51.354;9.588;2023-07-28T13:12:36;97378.84;;;27.18;63.14
5609;BME280;2826;51.354;9.588;2023-07-28T13:15:03;97412.41;;;27.34;61.36
5609;BME280;2826;51.354;9.588;2023-07-28T13:17:32;97420.06;;;27.07;62.22
5609;BME280;2826;51.354;9.588;2023-07-28T13:19:59;97427.38;;;26.59;64.90
5609;BME280;2826;51.354;9.588;2023-07-28T13:22:26;97421.38;;;26.27;65.67
5609;BME280;2826;51.354;9.588;2023-07-28T13:24:52;97418.13;;;26.17;66.59